Time;durP1;ratioP1;P1;durP2;ratioP2;P2;SDS_P1;SDS_P2;PMS_P1;PMS_P2;Temp;Humidity;BMP_temperature;BMP_pressure;BME280_temperature;BME280_humidity;BME280_pressure;Samples;Min_cycle;Max_cycle;Signal;HPM_P1;HPM_P2
2022/11/19 00:04:01;;;;;;;23.40;12.05;;;;;;;4.77;100.00;100451.84;10252187;29;20097;-71
2022/11/19 00:09:04;;;;;;;27.17;13.02;;;;;;;4.70;100.00;100465.81;10252554;29;20459;-71
2022/11/19 00:14:08;;;;;;;28.20;13.55;;;;;;;4.61;100.00;100461.69;10252189;29;20480;-71
2022/11/19 00:19:11;;;;;;;22.48;10.98;;;;;;;4.48;100.00;100463.72;10249824;29;20562;-71
2022/11/19 00:24:12;;;;;;;32.03;13.90;;;;;;;4.41;100.00;100465.59;10250367;28;20491;-72
2022/11/19 00:29:16;;;;;;;32.33;11.68;;;;;;;4.30;100.00;100463.25;10251472;29;20074;-71
2022/11/19 00:34:17;;;;;;;27.02;13.13;;;;;;;4.26;100.00;100471.97;10250940;29;20062;-71
2022/11/19 00:39:19;;;;;;;24.00;12.40;;;;;;;4.23;100.00;100480.63;10250947;29;20102;-71
2022/11/19 00:44:22;;;;;;;19.80;11.52;;;;;;;4.16;100.00;100480.78;10251017;29;20874;-71
2022/11/19 00:49:24;;;;;;;25.75;11.00;;;;;;;3.99;100.00;100484.56;10248984;29;20099;-70
2022/11/19 00:54:25;;;;;;;25.05;12.30;;;;;;;4.01;100.00;100488.00;10250847;29;20066;-71
2022/11/19 00:59:28;;;;;;;27.73;10.95;;;;;;;3.97;100.00;100491.50;10250613;29;20054;-70
2022/11/19 01:04:30;;;;;;;24.58;12.18;;;;;;;3.73;100.00;100494.53;10250473;29;20160;-72
2022/11/19 01:09:33;;;;;;;31.08;13.82;;;;;;;3.72;100.00;100499.72;10250659;29;20055;-72
2022/11/19 01:14:36;;;;;;;28.67;14.48;;;;;;;3.68;100.00;100500.66;10250299;29;20108;-72
2022/11/19 01:19:39;;;;;;;22.95;11.05;;;;;;;3.57;100.00;100508.63;10247891;29;20106;-74
2022/11/19 01:24:40;;;;;;;27.38;11.50;;;;;;;3.53;100.00;100507.84;10248122;29;20059;-72
2022/11/19 01:29:43;;;;;;;31.48;14.48;;;;;;;3.59;100.00;100512.88;10250213;29;20117;-72
2022/11/19 01:34:45;;;;;;;24.10;11.90;;;;;;;3.51;100.00;100519.91;10252833;28;20462;-72
2022/11/19 01:39:46;;;;;;;20.43;9.97;;;;;;;3.45;100.00;100530.31;10258205;29;20054;-72
2022/11/19 01:45:05;;;;;;;22.17;10.63;;;;;;;3.29;100.00;100535.75;10257747;29;20294;-72
2022/11/19 01:50:08;;;;;;;24.45;10.55;;;;;;;3.22;100.00;100535.00;10255497;29;20065;-72
2022/11/19 01:55:11;;;;;;;24.77;10.23;;;;;;;3.12;100.00;100541.22;10257768;29;20071;-70
2022/11/19 02:00:16;;;;;;;23.08;12.20;;;;;;;3.03;100.00;100549.94;10257463;29;20106;-72
2022/11/19 02:05:18;;;;;;;22.85;12.82;;;;;;;3.01;100.00;100556.84;10257032;29;20114;-71
2022/11/19 02:10:28;;;;;;;21.02;10.90;;;;;;;2.92;100.00;100550.13;10256949;29;20114;-71
2022/11/19 02:15:45;;;;;;;22.65;12.55;;;;;;;2.90;100.00;100553.56;10256953;29;20584;-71
2022/11/19 02:21:03;;;;;;;20.77;11.63;;;;;;;2.94;100.00;100568.09;10254334;29;20084;-71
2022/11/19 02:27:02;;;;;;;18.42;10.95;;;;;;;2.94;100.00;100566.41;10256207;29;20196;-71
2022/11/19 02:32:14;;;;;;;23.70;11.85;;;;;;;2.87;100.00;100561.38;10241917;29;20094;-72
2022/11/19 02:37:27;;;;;;;20.38;10.75;;;;;;;2.89;100.00;100564.75;10255956;29;20071;-71
2022/11/19 02:42:39;;;;;;;17.23;10.50;;;;;;;2.85;100.00;100568.25;10255424;29;20557;-72
2022/11/19 02:47:47;;;;;;;22.75;11.77;;;;;;;2.83;100.00;100571.72;10253022;28;20102;-72
2022/11/19 02:52:49;;;;;;;18.33;10.18;;;;;;;2.72;100.00;100571.00;10255415;29;20058;-71
2022/11/19 02:58:00;;;;;;;13.93;8.88;;;;;;;2.59;100.00;100574.66;10255218;29;20454;-72
2022/11/19 03:08:30;;;;;;;18.73;9.52;;;;;;;2.32;100.00;100580.09;10255061;29;20142;-72
2022/11/19 03:19:24;;;;;;;12.70;7.60;;;;;;;2.01;100.00;100589.06;10251829;29;20079;-72
2022/11/19 03:24:32;;;;;;;12.52;7.03;;;;;;;1.98;100.00;100594.22;10253952;29;20136;-71
2022/11/19 03:29:41;;;;;;;11.90;7.20;;;;;;;1.92;100.00;100596.88;10253829;29;20047;-72
2022/11/19 03:34:50;;;;;;;16.35;9.95;;;;;;;1.94;100.00;100600.28;10255315;29;20074;-71
2022/11/19 03:39:56;;;;;;;18.20;10.52;;;;;;;1.85;100.00;100598.66;10255253;29;20589;-71
2022/11/19 03:45:08;;;;;;;21.98;10.88;;;;;;;1.89;100.00;100605.47;10255387;29;20059;-71
2022/11/19 03:50:23;;;;;;;15.50;9.23;;;;;;;1.86;100.00;100604.66;10252753;29;20113;-71
2022/11/19 03:55:34;;;;;;;22.08;10.82;;;;;;;1.83;100.00;100613.25;10255235;29;20110;-71
2022/11/19 04:00:36;;;;;;;15.30;9.77;;;;;;;1.73;100.00;100619.34;10254025;29;20068;-72
2022/11/19 04:05:39;;;;;;;18.15;9.75;;;;;;;1.70;100.00;100620.22;10254605;29;20450;-73
2022/11/19 04:10:40;;;;;;;19.60;10.00;;;;;;;1.71;100.00;100621.94;10254648;29;20405;-71
2022/11/19 04:15:44;;;;;;;21.33;10.83;;;;;;;1.71;100.00;100629.66;10254959;29;20451;-73
2022/11/19 04:20:46;;;;;;;19.33;10.13;;;;;;;1.68;100.00;100624.56;10252563;29;20051;-72
2022/11/19 04:25:48;;;;;;;22.85;10.38;;;;;;;1.69;100.00;100633.97;10252465;28;20501;-71
2022/11/19 04:30:50;;;;;;;20.97;10.77;;;;;;;1.69;100.00;100654.56;10252945;29;20124;-72
2022/11/19 04:35:53;;;;;;;22.37;10.57;;;;;;;1.68;100.00;100655.44;10253698;29;20055;-72
2022/11/19 04:40:56;;;;;;;14.15;8.73;;;;;;;1.64;100.00;100661.47;10253478;29;20082;-72
2022/11/19 04:45:57;;;;;;;19.25;10.93;;;;;;;1.61;100.00;100656.34;10253301;29;20114;-72
2022/11/19 04:51:02;;;;;;;27.80;12.87;;;;;;;1.48;100.00;100648.72;10250926;29;20086;-73
2022/11/19 04:56:04;;;;;;;19.77;9.90;;;;;;;1.44;100.00;100649.63;10253043;29;20071;-72
2022/11/19 05:01:06;;;;;;;23.77;12.25;;;;;;;1.43;100.00;100663.31;10252738;29;20534;-72
2022/11/19 05:06:09;;;;;;;15.32;9.80;;;;;;;1.42;100.00;100659.06;10252510;29;20070;-72
2022/11/19 05:11:11;;;;;;;22.73;11.93;;;;;;;1.48;100.00;100671.00;10252375;28;20191;-70
2022/11/19 05:16:13;;;;;;;26.65;13.98;;;;;;;1.39;100.00;100674.50;10252527;29;20076;-72
2022/11/19 05:21:16;;;;;;;25.10;12.83;;;;;;;1.38;100.00;100683.09;10250176;29;20118;-73
2022/11/19 05:26:18;;;;;;;30.05;14.57;;;;;;;1.33;100.00;100693.38;10252226;29;20343;-71
2022/11/19 05:31:22;;;;;;;24.50;13.38;;;;;;;1.24;100.00;100689.19;10252428;29;20064;-72
2022/11/19 05:36:25;;;;;;;20.13;11.25;;;;;;;1.27;100.00;100694.28;10252042;29;20140;-72
2022/11/19 05:41:28;;;;;;;22.95;12.82;;;;;;;1.20;100.00;100697.75;10251709;29;20145;-72
2022/11/19 05:46:29;;;;;;;32.95;14.75;;;;;;;1.20;100.00;100699.47;10252109;29;20120;-72
2022/11/19 05:51:32;;;;;;;22.40;13.03;;;;;;;1.16;100.00;100706.34;10249635;29;20062;-73
2022/11/19 05:56:34;;;;;;;25.40;14.55;;;;;;;1.12;100.00;100708.09;10251836;29;20372;-73
2022/11/19 06:01:36;;;;;;;31.53;15.63;;;;;;;1.08;100.00;100711.53;10250052;29;20087;-72
2022/11/19 06:06:40;;;;;;;22.23;11.93;;;;;;;1.05;100.00;100723.53;10250504;29;20106;-73
2022/11/19 06:11:47;;;;;;;20.80;11.27;;;;;;;1.05;100.00;100728.66;10249254;29;20094;-73
2022/11/19 06:16:50;;;;;;;25.95;15.25;;;;;;;1.00;100.00;100731.28;10249381;29;20101;-72
2022/11/19 06:21:54;;;;;;;26.02;13.50;;;;;;;1.03;100.00;100736.41;10251237;28;20078;-72
2022/11/19 06:26:55;;;;;;;17.30;9.93;;;;;;;0.94;100.00;100742.44;10256614;28;20140;-71
2022/11/19 06:31:57;;;;;;;19.27;8.27;;;;;;;0.89;100.00;100757.03;10256371;29;20066;-72
2022/11/19 06:37:01;;;;;;;30.77;16.10;;;;;;;0.98;100.00;100769.84;10256007;29;20063;-74
2022/11/19 06:47:19;;;;;;;35.38;18.42;;;;;;;0.88;100.00;100769.03;10252201;29;20068;-74
2022/11/19 06:52:22;;;;;;;35.97;17.23;;;;;;;0.86;100.00;100775.03;10256104;29;20115;-73
2022/11/19 06:57:24;;;;;;;28.15;14.40;;;;;;;0.84;100.00;100774.16;10255334;29;20321;-74
2022/11/19 07:02:26;;;;;;;25.20;13.50;;;;;;;0.85;100.00;100774.16;10255164;29;20135;-73
2022/11/19 07:07:31;;;;;;;32.45;16.27;;;;;;;0.87;100.00;100792.16;10255420;29;20123;-73
2022/11/19 07:12:32;;;;;;;20.05;9.95;;;;;;;0.74;100.00;100787.03;10255039;29;20065;-73
2022/11/19 07:17:34;;;;;;;32.07;16.60;;;;;;;0.69;100.00;100801.63;10252895;29;20071;-73
2022/11/19 07:22:37;;;;;;;30.77;15.32;;;;;;;0.77;100.00;100811.88;10254098;28;20142;-73
2022/11/19 07:27:41;;;;;;;33.63;18.10;;;;;;;0.79;100.00;100814.44;10254037;29;20072;-74
2022/11/19 07:32:43;;;;;;;26.70;15.82;;;;;;;0.77;100.00;100810.16;10252844;28;20503;-72
2022/11/19 07:37:46;;;;;;;32.58;15.52;;;;;;;0.76;100.00;100825.59;10254066;29;20124;-72
2022/11/19 07:42:52;;;;;;;27.42;14.40;;;;;;;0.75;100.00;100835.00;10254663;29;20082;-73
2022/11/19 07:47:53;;;;;;;16.08;9.77;;;;;;;0.74;100.00;100828.16;10251356;29;20162;-74
2022/11/19 07:52:58;;;;;;;30.73;15.03;;;;;;;0.70;100.00;100841.00;10253594;29;20078;-73
2022/11/19 07:58:00;;;;;;;30.92;14.93;;;;;;;0.80;100.00;100846.97;10253128;29;20370;-74
2022/11/19 08:03:02;;;;;;;25.80;13.75;;;;;;;0.74;100.00;100852.97;10252937;29;20107;-73
2022/11/19 08:08:05;;;;;;;37.25;16.80;;;;;;;0.79;100.00;100850.41;10252503;29;20099;-73
2022/11/19 08:13:07;;;;;;;32.40;16.38;;;;;;;0.79;100.00;100850.41;10252247;29;20068;-72
2022/11/19 08:18:14;;;;;;;34.63;15.63;;;;;;;0.80;100.00;100862.38;10250372;29;20067;-73
2022/11/19 08:23:18;;;;;;;25.17;13.70;;;;;;;0.83;100.00;100864.97;10251769;28;20337;-72
2022/11/19 08:28:19;;;;;;;26.10;12.73;;;;;;;0.78;100.00;100862.38;10252022;29;20108;-73
2022/11/19 08:33:21;;;;;;;37.13;16.52;;;;;;;0.77;100.00;100868.41;10251479;29;20065;-72
2022/11/19 08:38:24;;;;;;;32.30;15.85;;;;;;;0.87;100.00;100872.66;10251636;29;20057;-74
2022/11/19 08:43:27;;;;;;;24.73;12.98;;;;;;;0.84;100.00;100874.38;10251154;28;20115;-73
2022/11/19 08:48:28;;;;;;;;;;;;;;;0.79;100.00;100876.09;10249142;29;20404;-72
2022/11/19 08:53:31;;;;;;;36.92;15.10;;;;;;;0.86;100.00;100877.81;10251080;29;19939;-74
2022/11/19 08:58:33;;;;;;;21.58;12.57;;;;;;;0.81;100.00;100885.50;10250891;29;20093;-74
2022/11/19 09:03:35;;;;;;;31.73;14.23;;;;;;;0.81;100.00;100882.94;10250655;29;20137;-74
2022/11/19 09:08:40;;;;;;;22.97;11.50;;;;;;;0.80;100.00;100891.53;10250505;29;20128;-73
2022/11/19 09:13:43;;;;;;;28.38;13.88;;;;;;;0.92;100.00;100888.06;10250398;29;20306;-74
2022/11/19 09:18:46;;;;;;;27.67;13.85;;;;;;;0.94;100.00;100895.78;10248562;29;20512;-74
2022/11/19 09:23:49;;;;;;;35.10;15.52;;;;;;;0.89;100.00;100899.22;10250867;29;20140;-73
2022/11/19 09:28:51;;;;;;;36.25;16.10;;;;;;;0.77;100.00;100915.50;10250244;29;20064;-74
2022/11/19 09:33:54;;;;;;;33.60;15.60;;;;;;;0.85;100.00;100909.47;10250197;29;20065;-74
2022/11/19 09:38:58;;;;;;;29.92;13.95;;;;;;;0.80;100.00;100918.91;10250251;29;20061;-74
2022/11/19 09:44:21;;;;;;;37.75;13.98;;;;;;;0.75;100.00;100922.34;10250692;29;20128;-73
2022/11/19 09:49:30;;;;;;;29.08;13.75;;;;;;;0.83;100.00;100931.78;10250434;29;20067;-74
2022/11/19 09:54:39;;;;;;;27.85;13.23;;;;;;;0.90;100.00;100946.34;10252682;28;20087;-74
2022/11/19 09:59:42;;;;;;;27.88;14.43;;;;;;;0.87;100.00;100948.91;10257603;29;20111;-73
2022/11/19 10:04:45;;;;;;;33.22;15.55;;;;;;;0.80;100.00;100945.47;10257709;29;20125;-74
2022/11/19 10:10:15;;;;;;;30.83;15.43;;;;;;;0.85;100.00;100942.88;10257301;29;20092;-76
2022/11/19 10:15:27;;;;;;;26.08;13.20;;;;;;;0.79;100.00;100948.03;10256899;29;20497;-74
2022/11/19 10:20:55;;;;;;;26.63;13.77;;;;;;;0.71;100.00;100948.91;10254315;29;20097;-74
2022/11/19 10:26:04;;;;;;;31.63;14.65;;;;;;;0.77;100.00;100959.19;10256392;28;20083;-75
2022/11/19 10:31:13;;;;;;;23.08;11.05;;;;;;;0.66;100.00;100968.59;10256487;29;20068;-75
2022/11/19 10:36:26;;;;;;;27.58;13.32;;;;;;;0.76;100.00;100965.16;10256285;29;20065;-75
2022/11/19 10:41:37;;;;;;;31.70;14.30;;;;;;;0.75;100.00;100967.72;10255947;29;20059;-73
2022/11/19 10:46:42;;;;;;;29.80;13.20;;;;;;;0.80;100.00;100960.03;10256023;29;20420;-74
2022/11/19 10:51:43;;;;;;;31.38;14.30;;;;;;;0.87;100.00;100966.88;10253286;29;20065;-74
2022/11/19 10:56:47;;;;;;;35.40;12.60;;;;;;;0.92;100.00;100964.31;10255940;29;20070;-75
2022/11/19 11:01:55;;;;;;;24.38;13.38;;;;;;;1.03;100.00;100968.59;10255233;29;20373;-74
2022/11/19 11:07:01;;;;;;;29.25;13.32;;;;;;;0.88;100.00;100968.59;10255047;28;20297;-75
2022/11/19 11:17:35;;;;;;;28.58;15.25;;;;;;;0.86;100.00;100970.31;10253024;29;20515;-74
2022/11/19 11:22:38;;;;;;;29.23;13.65;;;;;;;0.85;100.00;100966.00;10254157;28;20418;-73
2022/11/19 11:27:42;;;;;;;25.42;13.05;;;;;;;0.83;100.00;100965.16;10254173;29;20134;-74
2022/11/19 11:32:44;;;;;;;24.85;12.93;;;;;;;0.78;100.00;100960.03;10254355;29;20069;-73
2022/11/19 11:37:59;;;;;;;22.48;11.73;;;;;;;0.59;100.00;100952.31;10253808;29;20488;-74
2022/11/19 11:43:02;;;;;;;23.98;12.18;;;;;;;0.59;100.00;100954.91;10253892;29;20146;-74
2022/11/19 11:48:08;;;;;;;19.25;11.80;;;;;;;0.59;100.00;100948.88;10251137;29;20142;-74
2022/11/19 11:53:14;;;;;;;24.65;13.43;;;;;;;0.69;100.00;100952.31;10253244;29;20060;-75
2022/11/19 11:58:31;;;;;;;9.00;6.45;;;;;;;0.62;100.00;100951.47;10254166;29;20066;-73
2022/11/19 12:03:33;;;;;;;17.77;10.45;;;;;;;0.75;100.00;100953.19;10253055;29;20084;-75
2022/11/19 12:08:47;;;;;;;;;;;;;;;0.59;100.00;100946.31;10253261;29;20061;-75
2022/11/19 12:13:58;;;;;;;18.50;11.15;;;;;;;0.79;100.00;100953.19;10252659;29;19938;-73
2022/11/19 12:19:27;;;;;;;15.93;9.07;;;;;;;0.66;100.00;100948.03;10249912;28;20117;-75
2022/11/19 12:24:53;;;;;;;17.33;11.02;;;;;;;0.55;100.00;100960.03;10252645;29;20137;-73
2022/11/19 12:30:06;;;;;;;11.65;7.07;;;;;;;0.48;100.00;100967.69;10252005;29;20117;-75
2022/11/19 12:35:26;;;;;;;14.13;8.52;;;;;;;0.29;100.00;100963.38;10251659;29;20059;-74
2022/11/19 12:40:45;;;;;;;15.25;8.93;;;;;;;0.47;100.00;100968.56;10251936;29;20115;-73
2022/11/19 12:46:03;;;;;;;14.40;8.63;;;;;;;0.42;100.00;100977.13;10251945;29;20080;-73
2022/11/19 12:51:21;;;;;;;23.02;10.20;;;;;;;0.55;100.00;100972.88;10249322;29;20066;-75
2022/11/19 12:56:42;;;;;;;13.65;7.85;;;;;;;0.57;100.00;100976.28;10251067;29;20432;-74
2022/11/19 13:01:54;;;;;;;15.60;9.48;;;;;;;0.58;100.00;100955.72;10250791;29;20439;-74
2022/11/19 13:07:04;;;;;;;13.65;8.45;;;;;;;0.66;100.00;100958.31;10250968;29;20122;-74
2022/11/19 13:12:11;;;;;;;11.40;7.38;;;;;;;0.59;100.00;100960.03;10250930;29;20135;-74
2022/11/19 13:17:20;;;;;;;14.48;9.05;;;;;;;0.75;100.00;100955.75;10251144;29;20064;-74
2022/11/19 13:22:32;;;;;;;15.20;8.80;;;;;;;0.99;100.00;100958.31;10249807;29;20052;-72
2022/11/19 13:27:36;;;;;;;17.77;9.27;;;;;;;1.06;100.00;100961.75;10250872;29;20067;-73
2022/11/19 13:32:51;;;;;;;12.93;8.07;;;;;;;1.06;100.00;100970.28;10257768;28;20109;-75
2022/11/19 13:38:02;;;;;;;11.60;7.60;;;;;;;0.97;100.00;100967.75;10250631;28;20518;-74
2022/11/19 13:48:30;;;;;;;19.23;9.02;;;;;;;0.97;100.00;100960.03;10256076;29;20063;-75
2022/11/19 13:53:40;;;;;;;12.77;8.27;;;;;;;1.10;100.00;100960.88;10258143;29;20587;-74
2022/11/19 13:58:47;;;;;;;14.48;8.50;;;;;;;1.12;100.00;100961.72;10258247;29;20059;-74
2022/11/19 14:04:21;;;;;;;15.93;8.75;;;;;;;1.28;100.00;100963.44;10258095;29;20128;-73
2022/11/19 14:09:40;;;;;;;12.13;8.18;;;;;;;1.34;100.00;100969.41;10257519;29;20061;-74
2022/11/19 14:31:21;;;;;;;15.95;9.68;;;;;;;1.21;100.00;100969.44;10256709;29;20062;-73
2022/11/19 14:36:39;;;;;;;15.05;7.93;;;;;;;1.23;100.00;100974.59;10255405;28;20519;-73
2022/11/19 14:41:44;;;;;;;12.52;7.55;;;;;;;1.19;100.00;100971.13;10254017;28;20078;-74
2022/11/19 14:46:48;;;;;;;9.43;6.22;;;;;;;1.15;100.00;100977.16;10256269;29;20081;-74
2022/11/19 14:51:55;;;;;;;9.55;6.95;;;;;;;1.18;100.00;100986.56;10254089;29;20115;-75
2022/11/19 14:57:08;;;;;;;9.25;6.38;;;;;;;1.14;100.00;100986.59;10255730;29;20068;-73
2022/11/19 15:02:24;;;;;;;12.70;7.45;;;;;;;1.13;100.00;100989.16;10256009;29;20102;-74
2022/11/19 15:07:39;;;;;;;9.65;6.53;;;;;;;1.03;100.00;100978.88;10256218;29;20135;-74
2022/11/19 15:12:50;;;;;;;12.27;7.75;;;;;;;0.98;100.00;100980.59;10258932;29;20066;-75
2022/11/19 15:18:08;;;;;;;8.35;6.18;;;;;;;1.00;100.00;100989.13;10259267;29;20063;-74
2022/11/19 15:23:25;;;;;;;12.15;7.07;;;;;;;0.99;100.00;100987.44;10255426;29;20186;-75
2022/11/19 15:28:48;;;;;;;12.38;6.35;;;;;;;0.97;100.00;100994.31;10254764;29;20564;-74
2022/11/19 15:34:27;;;;;;;11.15;6.32;;;;;;;1.01;100.00;101001.16;10254935;29;20061;-75
2022/11/19 15:39:36;;;;;;;10.27;6.93;;;;;;;1.01;100.00;101003.72;10252459;28;20093;-76
2022/11/19 15:44:47;;;;;;;11.45;7.72;;;;;;;1.00;100.00;101003.72;10254010;29;20088;-75
2022/11/19 15:49:52;;;;;;;10.18;7.47;;;;;;;0.92;100.00;101006.28;10251565;29;20066;-75
2022/11/19 16:00:24;;;;;;;7.53;5.85;;;;;;;0.90;100.00;100997.72;10531364;27;20782;-75
2022/11/19 16:05:31;;;;;;;12.68;7.40;;;;;;;0.94;100.00;101004.56;10489467;28;20385;-75
2022/11/19 16:10:39;;;;;;;10.95;7.00;;;;;;;0.94;100.00;100996.88;10488944;28;20078;-75
2022/11/19 16:21:12;;;;;;;9.07;6.57;;;;;;;0.99;100.00;101007.16;10486226;28;20112;-75
2022/11/19 16:26:14;;;;;;;6.25;3.80;;;;;;;0.89;100.00;101012.28;10488052;28;20736;-75
2022/11/19 16:31:17;;;;;;;12.43;7.50;;;;;;;0.99;100.00;101008.00;10488044;28;20057;-75
2022/11/19 16:36:20;;;;;;;13.30;7.38;;;;;;;0.93;100.00;100996.88;10487948;28;20340;-74
2022/11/19 16:46:48;;;;;;;12.27;7.53;;;;;;;0.97;100.00;100994.31;10487521;28;20501;-75
2022/11/19 16:51:53;;;;;;;14.18;8.32;;;;;;;0.95;100.00;101003.72;10484907;28;20065;-75
2022/11/19 16:56:56;;;;;;;10.65;7.32;;;;;;;0.97;100.00;101002.03;10486632;28;20103;-75
2022/11/19 17:01:59;;;;;;;9.45;6.22;;;;;;;0.95;100.00;101006.28;10486016;28;20058;-68
2022/11/19 17:07:01;;;;;;;14.43;7.00;;;;;;;0.95;100.00;101003.72;10483886;28;20062;-69
2022/11/19 17:12:18;;;;;;;11.95;6.68;;;;;;;1.02;100.00;101005.44;10457020;28;20058;-68
2022/11/19 17:17:38;;;;;;;10.25;5.65;;;;;;;0.98;100.00;101010.56;10456596;28;20077;-68
2022/11/19 17:22:40;;;;;;;9.43;5.72;;;;;;;0.97;100.00;101020.00;10456740;28;20511;-68
2022/11/19 17:27:42;;;;;;;8.70;6.07;;;;;;;0.94;100.00;101027.72;10457225;28;20067;-68
2022/11/19 17:32:49;;;;;;;8.73;5.60;;;;;;;0.98;100.00;101026.84;10456722;28;20324;-68
2022/11/19 17:37:52;;;;;;;11.63;6.55;;;;;;;1.02;100.00;101036.28;10456154;28;20122;-68
2022/11/19 17:48:22;;;;;;;10.82;6.03;;;;;;;0.95;100.00;101037.13;10453896;28;20063;-68
2022/11/19 17:53:24;;;;;;;13.80;7.28;;;;;;;0.97;100.00;101038.00;10456247;28;20063;-67
2022/11/19 17:58:26;;;;;;;12.05;6.05;;;;;;;0.99;100.00;101036.28;10455277;28;20622;-68
2022/11/19 18:03:29;;;;;;;13.77;8.10;;;;;;;1.01;100.00;101041.41;10455429;28;20062;-67
2022/11/19 18:08:31;;;;;;;12.80;8.45;;;;;;;0.99;100.00;101043.16;10455317;28;20310;-67
2022/11/19 18:13:36;;;;;;;12.18;8.35;;;;;;;1.02;100.00;101031.13;10456834;28;20506;-74
2022/11/19 18:18:39;;;;;;;9.20;6.25;;;;;;;0.96;100.00;101040.56;10453844;28;20116;-74
2022/11/19 18:23:45;;;;;;;10.25;7.15;;;;;;;0.90;100.00;101018.28;10454068;28;20557;-74
2022/11/19 18:28:46;;;;;;;11.13;6.50;;;;;;;0.93;100.00;101033.72;10454572;28;20060;-74
2022/11/19 18:33:50;;;;;;;9.03;6.50;;;;;;;0.94;100.00;101025.13;10454784;28;20124;-75
2022/11/19 18:38:53;;;;;;;7.88;5.70;;;;;;;0.95;100.00;101024.28;10453867;28;20344;-74
2022/11/19 18:49:17;;;;;;;7.88;4.47;;;;;;;0.87;100.00;101028.56;10451073;28;20052;-74
2022/11/19 18:54:19;;;;;;;7.32;5.05;;;;;;;0.84;100.00;101028.53;10453546;28;20053;-75
2022/11/19 18:59:20;;;;;;;8.90;6.60;;;;;;;0.81;100.00;101020.81;10453238;28;20099;-74
2022/11/19 19:04:24;;;;;;;7.35;5.53;;;;;;;0.75;100.00;101025.13;10453197;28;20420;-74
2022/11/19 19:09:25;;;;;;;16.63;6.65;;;;;;;0.63;100.00;101036.25;10453132;28;20101;-74
2022/11/19 19:14:28;;;;;;;9.20;4.38;;;;;;;0.58;100.00;101026.81;10452863;28;20524;-74
2022/11/19 19:19:31;;;;;;;7.22;4.97;;;;;;;0.61;100.00;101031.94;10450588;28;20627;-75
2022/11/19 19:24:33;;;;;;;8.52;5.78;;;;;;;0.59;100.00;101028.50;10452664;28;20063;-74
2022/11/19 19:29:35;;;;;;;6.97;4.55;;;;;;;0.58;100.00;101026.81;10452305;28;20134;-75
2022/11/19 19:34:39;;;;;;;8.45;5.03;;;;;;;0.54;100.00;101030.22;10452233;28;20082;-74
2022/11/19 19:39:41;;;;;;;8.50;5.47;;;;;;;0.53;100.00;101020.78;10452202;28;20535;-74
2022/11/19 19:44:43;;;;;;;13.30;7.00;;;;;;;0.39;100.00;101026.75;10451967;28;20120;-76
2022/11/19 19:49:47;;;;;;;8.83;5.93;;;;;;;0.10;100.00;101025.78;10449549;28;20081;-74
2022/11/19 19:54:50;;;;;;;6.82;4.72;;;;;;;-0.28;100.00;101027.34;10451742;28;20311;-75
2022/11/19 19:59:51;;;;;;;11.25;6.53;;;;;;;-0.53;100.00;101039.13;10451431;28;20146;-74
2022/11/19 20:04:54;;;;;;;12.80;8.37;;;;;;;-0.80;100.00;101044.09;10451881;28;20429;-75
2022/11/19 20:09:56;;;;;;;13.07;8.40;;;;;;;-1.09;100.00;101044.66;10451481;28;20056;-75
2022/11/19 20:14:58;;;;;;;13.90;9.20;;;;;;;-1.34;100.00;101048.69;10451362;28;20064;-75
2022/11/19 20:20:01;;;;;;;10.27;6.53;;;;;;;-1.52;100.00;101059.59;10449050;28;20572;-76
2022/11/19 20:25:02;;;;;;;9.07;5.93;;;;;;;-1.70;100.00;101054.31;10452357;28;20063;-74
2022/11/19 20:30:05;;;;;;;8.97;5.50;;;;;;;-1.76;100.00;101058.47;10454802;28;20097;-75
2022/11/19 20:35:09;;;;;;;5.53;4.32;;;;;;;-1.96;100.00;101064.19;10462836;28;20387;-75
2022/11/19 20:40:11;;;;;;;5.18;4.32;;;;;;;-2.15;100.00;101058.84;10451719;28;20172;-75
2022/11/19 20:45:13;;;;;;;11.73;4.97;;;;;;;-2.22;100.00;101069.84;10456110;28;20070;-75
2022/11/19 20:50:17;;;;;;;4.10;3.67;;;;;;;-2.42;100.00;101078.06;10456302;28;20112;-75
2022/11/19 20:55:18;;;;;;;6.45;4.05;;;;;;;-2.61;100.00;101075.22;10458859;28;20320;-75
2022/11/19 21:00:20;;;;;;;8.63;5.03;;;;;;;-2.77;100.00;101065.59;10416808;28;20084;-75
2022/11/19 21:05:23;;;;;;;10.32;7.88;;;;;;;-2.86;100.00;101072.28;10417058;28;20688;-75
2022/11/19 21:10:25;;;;;;;7.65;5.15;;;;;;;-2.91;100.00;101071.31;10416487;28;20477;-75
2022/11/19 21:15:27;;;;;;;10.83;5.07;;;;;;;-2.98;100.00;101066.94;10417703;28;20118;-74
2022/11/19 21:20:30;;;;;;;;;;;;;;;-3.14;100.00;101063.25;10415483;28;20551;-75
2022/11/19 21:25:33;;;;;;;5.57;3.97;;;;;;;-3.32;100.00;101063.78;10417895;28;19946;-74
2022/11/19 21:30:35;;;;;;;5.93;4.50;;;;;;;-3.28;100.00;101071.50;10417005;28;20069;-75
2022/11/19 21:35:41;;;;;;;7.80;4.77;;;;;;;-3.34;100.00;101080.75;10416288;28;20577;-75
2022/11/19 21:40:43;;;;;;;5.70;4.50;;;;;;;-3.34;100.00;101080.75;10416370;28;20395;-69
2022/11/19 21:45:47;;;;;;;4.13;3.47;;;;;;;-3.36;100.00;101079.03;10415926;28;20479;-68
2022/11/19 21:50:51;;;;;;;4.15;3.75;;;;;;;-3.28;100.00;101068.13;10413342;28;20080;-68
2022/11/19 21:55:56;;;;;;;6.82;5.03;;;;;;;-3.20;100.00;101066.56;10420021;28;20087;-68
2022/11/19 22:00:59;;;;;;;13.52;8.80;;;;;;;-3.15;100.00;101064.94;10456305;28;20089;-69
2022/11/19 22:06:06;;;;;;;19.88;10.98;;;;;;;-3.03;100.00;101058.34;10456572;28;20076;-69
2022/11/19 22:16:27;;;;;;;15.07;9.23;;;;;;;-2.69;100.00;101068.25;10456547;28;20063;-68
2022/11/19 22:21:30;;;;;;;16.38;10.95;;;;;;;-2.50;100.00;101061.75;10453871;28;20510;-68
2022/11/19 22:26:32;;;;;;;18.48;10.13;;;;;;;-2.41;100.00;101067.00;10455806;28;20073;-68
2022/11/19 22:31:34;;;;;;;13.07;6.90;;;;;;;-2.33;100.00;101069.66;10456097;28;20087;-68
2022/11/19 22:36:37;;;;;;;10.32;5.40;;;;;;;-2.23;100.00;101066.41;10455602;28;20483;-68
2022/11/19 22:41:40;;;;;;;9.77;6.88;;;;;;;-2.15;100.00;101076.75;10455615;28;20491;-68
2022/11/19 22:46:42;;;;;;;9.10;5.10;;;;;;;-2.08;100.00;101065.75;10455179;28;20120;-68
2022/11/19 22:51:45;;;;;;;6.90;4.97;;;;;;;-2.11;100.00;101075.97;10452443;28;20108;-68
2022/11/19 22:56:46;;;;;;;6.03;4.72;;;;;;;-2.20;100.00;101057.91;10454920;28;20376;-68
2022/11/19 23:01:48;;;;;;;10.17;6.07;;;;;;;-2.19;100.00;101054.50;10454451;28;20127;-68
2022/11/19 23:06:51;;;;;;;7.43;6.47;;;;;;;-2.28;100.00;101046.72;10454087;28;20067;-67
2022/11/19 23:17:13;;;;;;;12.20;8.05;;;;;;;-2.55;100.00;101061.69;10454463;28;20081;-67
2022/11/19 23:22:16;;;;;;;9.33;6.47;;;;;;;-2.72;100.00;101051.19;10451953;28;20073;-68
2022/11/19 23:27:17;;;;;;;6.07;5.13;;;;;;;-2.94;100.00;101039.75;10454093;28;20321;-75
2022/11/19 23:32:19;;;;;;;13.43;6.97;;;;;;;-3.16;100.00;101039.38;10453767;28;20129;-75
2022/11/19 23:37:22;;;;;;;10.40;6.82;;;;;;;-3.31;100.00;101029.75;10454013;28;20085;-75
2022/11/19 23:42:24;;;;;;;10.00;6.85;;;;;;;-3.45;100.00;101026.97;10453734;28;20094;-75
2022/11/19 23:47:25;;;;;;;12.88;6.40;;;;;;;-3.51;100.00;101007.28;10453370;28;20072;-74
2022/11/19 23:52:30;;;;;;;8.85;5.22;;;;;;;-3.47;100.00;101010.75;10451145;28;20067;-76
2022/11/19 23:57:31;;;;;;;7.40;5.70;;;;;;;-3.58;100.00;101015.66;10452887;28;20110;-75
